Time;durP1;ratioP1;P1;durP2;ratioP2;P2;SDS_P1;SDS_P2;PMS_P1;PMS_P2;Temp;Humidity;BMP_temperature;BMP_pressure;BME280_temperature;BME280_humidity;BME280_pressure;Samples;Min_cycle;Max_cycle;Signal;HPM_P1;HPM_P2
2023/06/23 00:01:20;;;;;;;11.90;7.88;;;17.80;99.90;;;;;;5061019;28;20366;-83
2023/06/23 00:03:46;;;;;;;13.10;9.07;;;17.90;99.90;;;;;;5050424;28;20571;-82
2023/06/23 00:06:12;;;;;;;10.90;8.70;;;;;;;;;;5067255;28;20087;-83
2023/06/23 00:08:39;;;;;;;12.95;9.25;;;17.80;99.90;;;;;;5050163;28;20073;-83
2023/06/23 00:11:06;;;;;;;13.02;9.32;;;18.00;99.90;;;;;;5062390;28;20094;-82
2023/06/23 00:13:34;;;;;;;12.40;10.38;;;17.90;99.90;;;;;;5062833;28;20029;-83
2023/06/23 00:16:00;;;;;;;13.40;9.93;;;;;;;;;;5067045;28;20723;-83
2023/06/23 00:18:26;;;;;;;13.82;9.75;;;18.00;99.90;;;;;;5066085;28;20068;-83
2023/06/23 00:20:54;;;;;;;15.68;11.27;;;17.70;99.90;;;;;;5066753;28;20084;-82
2023/06/23 00:23:20;;;;;;;15.70;11.13;;;;;;;;;;5066860;28;20044;-84
2023/06/23 00:25:46;;;;;;;14.45;10.70;;;;;;;;;;5049159;28;20036;-82
2023/06/23 00:28:12;;;;;;;17.58;11.85;;;;;;;;;;5063085;28;20045;-82
2023/06/23 00:30:38;;;;;;;15.02;11.57;;;17.80;99.90;;;;;;5049931;28;20123;-83
2023/06/23 00:33:04;;;;;;;15.20;12.35;;;;;;;;;;5066397;28;20741;-83
2023/06/23 00:35:30;;;;;;;18.08;13.02;;;;;;;;;;5049954;28;20057;-82
2023/06/23 00:37:56;;;;;;;17.33;13.50;;;;;;;;;;5066569;28;20041;-83
2023/06/23 00:40:23;;;;;;;17.08;12.15;;;18.00;99.90;;;;;;5042135;28;20053;-83
2023/06/23 00:42:52;;;;;;;15.57;13.23;;;18.00;99.90;;;;;;5061415;28;20040;-82
2023/06/23 00:45:19;;;;;;;18.40;14.07;;;17.90;99.90;;;;;;5049591;28;20044;-83
2023/06/23 00:47:45;;;;;;;18.02;13.35;;;18.10;99.90;;;;;;5049922;28;20413;-83
2023/06/23 00:50:16;;;;;;;19.58;13.15;;;17.90;99.90;;;;;;5066154;28;20059;-83
2023/06/23 00:52:50;;;;;;;17.23;12.77;;;17.90;99.90;;;;;;5059307;28;20111;-83
2023/06/23 00:55:18;;;;;;;22.27;14.88;;;17.80;99.90;;;;;;5065922;28;20052;-84
2023/06/23 00:57:45;;;;;;;19.00;14.82;;;17.90;99.90;;;;;;5062793;28;20048;-82
2023/06/23 01:00:17;;;;;;;19.50;13.40;;;17.90;99.90;;;;;;5066162;28;20044;-83
2023/06/23 01:02:44;;;;;;;19.73;14.95;;;17.80;99.90;;;;;;5066285;28;20094;-83
2023/06/23 01:05:10;;;;;;;21.10;14.40;;;17.80;99.90;;;;;;5065939;28;20028;-83
2023/06/23 01:08:09;;;;;;;20.17;13.57;;;17.90;99.90;;;;;;5065887;28;20040;-83
2023/06/23 01:10:35;;;;;;;19.23;14.40;;;;;;;;;;5060587;28;20052;-83
2023/06/23 01:13:01;;;;;;;18.08;13.80;;;;;;;;;;5065694;28;20202;-83
2023/06/23 01:15:33;;;;;;;17.27;13.25;;;18.00;99.90;;;;;;5065461;28;20044;-83
2023/06/23 01:18:13;;;;;;;21.50;14.15;;;17.90;99.90;;;;;;5049021;28;20502;-82
2023/06/23 01:20:41;;;;;;;19.10;15.20;;;17.80;99.90;;;;;;5061124;28;20094;-83
2023/06/23 01:23:14;;;;;;;21.70;15.55;;;19.70;99.90;;;;;;5042488;28;20041;-83
2023/06/23 01:26:14;;;;;;;20.92;15.35;;;17.80;99.90;;;;;;5065449;28;20048;-83
2023/06/23 01:29:00;;;;;;;21.85;15.57;;;17.60;99.90;;;;;;5064890;28;20124;-82
2023/06/23 01:31:33;;;;;;;19.35;15.43;;;17.80;99.90;;;;;;5048819;28;20135;-82
2023/06/23 01:34:06;;;;;;;23.40;16.85;;;17.60;99.90;;;;;;5065212;28;20969;-83
2023/06/23 01:36:52;;;;;;;23.83;15.25;;;17.60;99.90;;;;;;5048642;28;20036;-83
2023/06/23 01:39:20;;;;;;;18.73;15.48;;;17.60;99.90;;;;;;5057624;28;20044;-83
2023/06/23 01:41:52;;;;;;;22.77;16.75;;;17.60;99.90;;;;;;5045485;28;20103;-83
2023/06/23 01:44:21;;;;;;;21.02;15.93;;;17.60;99.90;;;;;;5032509;28;20037;-83
2023/06/23 01:46:51;;;;;;;21.05;15.27;;;17.80;99.90;;;;;;5048997;28;20036;-83
2023/06/23 01:49:23;;;;;;;21.42;15.35;;;17.70;99.90;;;;;;5065617;28;20048;-83
2023/06/23 01:51:51;;;;;;;20.02;16.20;;;17.50;99.90;;;;;;5064751;28;20550;-83
2023/06/23 01:54:18;;;;;;;21.27;15.55;;;17.60;99.90;;;;;;5049073;28;20040;-83
2023/06/23 01:56:46;;;;;;;24.65;16.90;;;17.60;99.90;;;;;;5065632;28;20481;-83
2023/06/23 01:59:14;;;;;;;25.70;17.73;;;17.60;99.90;;;;;;5065182;28;20052;-83
2023/06/23 02:01:42;;;;;;;25.13;16.40;;;17.70;99.90;;;;;;5065370;28;20048;-83
2023/06/23 02:04:09;;;;;;;24.90;16.27;;;17.50;99.90;;;;;;5048323;28;20123;-83
2023/06/23 02:06:36;;;;;;;24.23;16.30;;;17.60;99.90;;;;;;5043410;28;20036;-83
2023/06/23 02:09:06;;;;;;;22.75;15.70;;;17.30;99.90;;;;;;5065053;28;20401;-83
2023/06/23 02:11:33;;;;;;;24.63;17.23;;;17.40;99.90;;;;;;5064625;28;20051;-83
2023/06/23 02:14:00;;;;;;;22.15;15.73;;;17.40;99.90;;;;;;5061874;28;20038;-83
2023/06/23 02:16:27;;;;;;;20.83;15.70;;;17.30;99.90;;;;;;5060703;28;20150;-83
2023/06/23 02:18:56;;;;;;;19.70;14.40;;;17.40;99.90;;;;;;5064446;28;20111;-83
2023/06/23 02:21:23;;;;;;;20.38;15.00;;;17.40;99.90;;;;;;5064685;28;20081;-82
2023/06/23 02:23:50;;;;;;;20.55;14.73;;;17.40;99.90;;;;;;5064521;28;20060;-83
2023/06/23 02:26:16;;;;;;;21.55;15.02;;;17.40;99.90;;;;;;5064562;28;20046;-83
2023/06/23 02:28:49;;;;;;;19.27;14.73;;;17.20;99.90;;;;;;5047576;28;20032;-83
2023/06/23 02:31:21;;;;;;;16.42;13.60;;;17.10;99.90;;;;;;5064805;28;20041;-83
2023/06/23 02:33:47;;;;;;;20.17;13.88;;;;;;;;;;5044034;28;20036;-82
2023/06/23 02:36:17;;;;;;;19.15;13.50;;;17.20;99.90;;;;;;5064985;28;20040;-83
2023/06/23 02:38:44;;;;;;;20.73;13.75;;;17.10;99.90;;;;;;5048072;28;20052;-83
2023/06/23 02:41:11;;;;;;;15.68;13.65;;;17.00;99.90;;;;;;5066994;28;20151;-83
2023/06/23 02:43:54;;;;;;;17.80;13.30;;;17.30;99.90;;;;;;5068452;28;20048;-83
2023/06/23 02:46:23;;;;;;;18.60;14.23;;;17.10;99.90;;;;;;5067343;28;20075;-83
2023/06/23 02:48:51;;;;;;;18.17;13.20;;;17.10;99.90;;;;;;5051717;28;20040;-82
2023/06/23 02:51:20;;;;;;;16.35;12.98;;;17.00;99.90;;;;;;5064685;28;20060;-83
2023/06/23 02:53:49;;;;;;;16.98;12.48;;;16.90;99.90;;;;;;5051488;28;20116;-83
2023/06/23 02:56:19;;;;;;;16.67;12.70;;;16.90;99.90;;;;;;5051525;28;20044;-83
2023/06/23 02:58:47;;;;;;;17.55;12.65;;;16.90;99.90;;;;;;5058650;28;20402;-83
2023/06/23 03:01:14;;;;;;;15.80;11.98;;;16.60;99.90;;;;;;5068778;28;20040;-83
2023/06/23 03:03:41;;;;;;;18.10;12.30;;;16.80;99.90;;;;;;5068476;28;20055;-83
2023/06/23 03:06:18;;;;;;;14.95;12.02;;;16.70;99.90;;;;;;5068182;28;20098;-83
2023/06/23 03:08:45;;;;;;;15.95;11.60;;;16.60;99.90;;;;;;5052054;28;20091;-82
2023/06/23 03:11:10;;;;;;;16.02;12.20;;;;;;;;;;5068460;28;20521;-82
2023/06/23 03:13:36;;;;;;;20.67;14.43;;;16.50;99.90;;;;;;5068570;28;20041;-82
2023/06/23 03:16:08;;;;;;;15.38;13.02;;;16.50;99.90;;;;;;5068867;28;20563;-82
2023/06/23 03:18:35;;;;;;;17.23;14.10;;;16.60;99.90;;;;;;5068679;28;20032;-84
2023/06/23 03:21:04;;;;;;;19.70;14.18;;;16.60;99.90;;;;;;5068078;28;20045;-82
2023/06/23 03:23:32;;;;;;;15.38;13.52;;;16.40;99.90;;;;;;5068226;28;20541;-82
2023/06/23 03:25:59;;;;;;;17.10;13.88;;;;;;;;;;5051458;28;20044;-82
2023/06/23 03:28:30;;;;;;;18.65;14.27;;;16.30;99.90;;;;;;5067968;28;20045;-82
2023/06/23 03:31:02;;;;;;;17.10;11.90;;;16.30;99.90;;;;;;5068438;28;20578;-83
2023/06/23 03:33:34;;;;;;;18.00;11.85;;;16.20;99.90;;;;;;5068105;28;20044;-83
2023/06/23 03:36:11;;;;;;;13.68;11.60;;;16.10;99.90;;;;;;5068890;28;20051;-82
2023/06/23 03:39:03;;;;;;;16.88;11.77;;;16.00;99.90;;;;;;5052595;28;20072;-83
2023/06/23 03:41:30;;;;;;;16.33;11.25;;;16.10;99.90;;;;;;5063154;28;20063;-83
2023/06/23 03:44:09;;;;;;;14.77;12.20;;;16.20;99.90;;;;;;5068762;28;20455;-82
2023/06/23 03:46:46;;;;;;;16.10;12.60;;;15.80;99.90;;;;;;5068698;28;20098;-82
2023/06/23 03:49:14;;;;;;;16.98;13.18;;;15.80;99.90;;;;;;5070334;28;20044;-82
2023/06/23 03:51:43;;;;;;;15.73;13.13;;;15.70;99.90;;;;;;5054864;28;20506;-83
2023/06/23 03:54:11;;;;;;;18.15;14.35;;;17.20;99.90;;;;;;5067927;28;20110;-83
2023/06/23 03:56:38;;;;;;;19.20;14.77;;;15.40;99.90;;;;;;5068758;28;20040;-82
2023/06/23 03:59:06;;;;;;;19.35;14.05;;;15.50;99.90;;;;;;5052054;28;20066;-82
2023/06/23 04:01:33;;;;;;;19.80;14.60;;;15.60;99.90;;;;;;5068588;28;20041;-82
2023/06/23 04:04:00;;;;;;;20.65;16.10;;;;;;;;;;5068844;28;20047;-82
2023/06/23 04:06:26;;;;;;;19.27;15.10;;;15.60;99.90;;;;;;5068886;28;20464;-83
2023/06/23 04:08:54;;;;;;;21.90;16.83;;;15.60;99.90;;;;;;5051972;28;20040;-83
2023/06/23 04:11:22;;;;;;;20.17;15.93;;;15.70;99.90;;;;;;5050927;28;20040;-82
2023/06/23 04:13:49;;;;;;;19.10;16.08;;;15.60;99.90;;;;;;5068159;28;20520;-82
2023/06/23 04:16:16;;;;;;;18.48;14.38;;;15.60;99.90;;;;;;5051038;28;20076;-82
2023/06/23 04:18:43;;;;;;;21.63;16.33;;;15.30;99.90;;;;;;5050871;28;20032;-82
2023/06/23 04:21:11;;;;;;;19.80;15.20;;;15.50;99.90;;;;;;5051072;28;20498;-83
2023/06/23 04:23:39;;;;;;;20.70;17.08;;;15.60;99.90;;;;;;5067403;28;20128;-82
2023/06/23 04:26:08;;;;;;;21.67;17.75;;;15.40;99.90;;;;;;5067166;28;20040;-83
2023/06/23 04:28:35;;;;;;;24.42;18.92;;;15.50;99.90;;;;;;5067472;28;20512;-83
2023/06/23 04:31:06;;;;;;;25.75;19.30;;;15.80;99.90;;;;;;5067326;28;20452;-82
2023/06/23 04:33:32;;;;;;;26.40;20.33;;;;;;;;;;5050355;28;20048;-82
2023/06/23 04:36:06;;;;;;;24.00;19.20;;;15.90;99.90;;;;;;5050306;28;20524;-82
2023/06/23 04:38:35;;;;;;;21.52;18.27;;;15.60;99.90;;;;;;5062748;28;20074;-82
2023/06/23 04:41:07;;;;;;;25.95;20.75;;;15.70;99.90;;;;;;5067253;28;20506;-82
2023/06/23 04:43:38;;;;;;;26.48;20.23;;;15.60;99.90;;;;;;5067138;28;20056;-82
2023/06/23 04:46:11;;;;;;;29.70;21.23;;;15.60;99.90;;;;;;5046531;28;20040;-83
2023/06/23 04:48:45;;;;;;;31.48;22.58;;;15.80;99.90;;;;;;5064835;28;20539;-82
2023/06/23 04:51:13;;;;;;;30.25;23.70;;;15.90;99.90;;;;;;5066939;28;20060;-82
2023/06/23 04:53:46;;;;;;;35.70;25.58;;;15.70;99.90;;;;;;5066744;28;20399;-82
2023/06/23 04:56:16;;;;;;;30.40;24.27;;;16.20;99.90;;;;;;5049769;28;20056;-82
2023/06/23 04:58:43;;;;;;;34.25;25.95;;;16.10;99.90;;;;;;5049703;28;20033;-82
2023/06/23 05:01:11;;;;;;;31.45;24.08;;;16.10;99.90;;;;;;5066370;28;20103;-83
2023/06/23 05:03:37;;;;;;;30.17;23.80;;;;;;;;;;5049259;28;20039;-82
2023/06/23 05:06:04;;;;;;;31.02;24.95;;;16.10;99.90;;;;;;5066200;28;20040;-83
2023/06/23 05:08:32;;;;;;;30.17;24.83;;;16.20;99.90;;;;;;5066328;28;20039;-83
2023/06/23 05:11:05;;;;;;;31.40;23.65;;;16.30;99.90;;;;;;5066630;28;20059;-82
2023/06/23 05:13:33;;;;;;;29.92;22.08;;;16.50;99.90;;;;;;5049329;28;20040;-83
2023/06/23 05:16:02;;;;;;;32.95;23.88;;;16.50;99.90;;;;;;5049271;28;20048;-83
2023/06/23 05:18:29;;;;;;;24.45;20.33;;;16.60;99.90;;;;;;5049111;28;20091;-82
2023/06/23 05:20:58;;;;;;;30.90;22.80;;;16.40;99.90;;;;;;5065839;28;20033;-83
2023/06/23 05:23:26;;;;;;;29.25;23.05;;;16.60;99.90;;;;;;5065819;28;20047;-84
2023/06/23 05:25:53;;;;;;;28.13;20.88;;;16.60;99.90;;;;;;5065890;28;20045;-82
2023/06/23 05:28:20;;;;;;;28.25;21.30;;;16.90;99.90;;;;;;5065987;28;20048;-83
2023/06/23 05:30:46;;;;;;;27.52;21.20;;;16.70;99.90;;;;;;5065866;28;20072;-82
2023/06/23 05:33:14;;;;;;;26.70;20.25;;;16.80;99.90;;;;;;5048924;28;20036;-82
2023/06/23 05:35:40;;;;;;;25.63;17.45;;;;;;;;;;5065524;28;20083;-83
2023/06/23 05:38:06;;;;;;;25.45;18.23;;;;;;;;;;5065345;28;20569;-83
2023/06/23 05:40:32;;;;;;;23.10;16.55;;;;;;;;;;5048536;28;20048;-82
2023/06/23 05:42:58;;;;;;;23.65;15.27;;;18.10;99.90;;;;;;5065687;28;20032;-83
2023/06/23 05:45:24;;;;;;;21.40;15.77;;;18.70;99.90;;;;;;5048679;28;20048;-83
2023/06/23 05:48:14;;;;;;;19.25;13.95;;;19.60;99.90;;;;;;5065339;28;20043;-82
2023/06/23 05:50:43;;;;;;;19.48;13.23;;;19.70;99.90;;;;;;5065372;28;20514;-83
2023/06/23 05:53:20;;;;;;;17.23;12.38;;;20.70;99.90;;;;;;5065460;28;20417;-83
2023/06/23 05:56:02;;;;;;;17.00;12.80;;;22.90;99.90;;;;;;5065491;28;20640;-84
2023/06/23 05:58:32;;;;;;;13.68;10.55;;;22.00;99.90;;;;;;5049163;28;20056;-83
2023/06/23 06:01:02;;;;;;;15.40;10.57;;;22.30;99.90;;;;;;5065408;28;20036;-83
2023/06/23 06:03:35;;;;;;;14.90;10.43;;;22.70;99.90;;;;;;5041665;28;20041;-83
2023/06/23 06:06:03;;;;;;;11.50;9.25;;;24.00;99.90;;;;;;5044934;28;20037;-83
2023/06/23 06:08:30;;;;;;;11.90;9.57;;;23.80;99.90;;;;;;5037179;28;20044;-83
2023/06/23 06:10:58;;;;;;;15.15;9.73;;;24.40;99.90;;;;;;5045146;28;20085;-84
2023/06/23 06:13:25;;;;;;;11.20;7.75;;;25.80;99.90;;;;;;5048054;28;20044;-84
2023/06/23 06:15:53;;;;;;;12.98;8.88;;;26.70;99.90;;;;;;5048020;28;20040;-84
2023/06/23 06:18:20;;;;;;;12.10;7.47;;;25.90;99.90;;;;;;5064753;28;20390;-84
2023/06/23 06:20:47;;;;;;;10.75;7.68;;;26.00;99.90;;;;;;5056676;28;20572;-85
2023/06/23 06:23:14;;;;;;;10.52;7.18;;;26.30;99.90;;;;;;5064446;28;20040;-84
2023/06/23 06:25:44;;;;;;;9.75;7.10;;;27.60;99.90;;;;;;5048166;28;20036;-84
2023/06/23 06:28:12;;;;;;;12.18;7.45;;;26.90;99.90;;;;;;5058631;28;20089;-84
2023/06/23 06:30:40;;;;;;;8.10;6.47;;;27.10;99.90;;;;;;5064198;28;20037;-84
2023/06/23 06:33:09;;;;;;;10.32;6.53;;;27.40;99.90;;;;;;5047578;28;20042;-84
2023/06/23 06:35:37;;;;;;;9.95;6.13;;;29.80;99.90;;;;;;5064418;28;20142;-84
2023/06/23 06:38:05;;;;;;;10.07;7.07;;;29.00;99.90;;;;;;5047518;28;20043;-83
2023/06/23 06:40:31;;;;;;;9.85;7.18;;;28.60;99.90;;;;;;5064368;28;20535;-83
2023/06/23 06:42:56;;;;;;;8.82;6.32;;;25.40;99.90;;;;;;5062400;28;20044;-84
2023/06/23 06:45:22;;;;;;;10.60;7.20;;;24.50;99.90;;;;;;5040685;28;20390;-83
2023/06/23 06:47:49;;;;;;;9.07;5.93;;;25.30;99.90;;;;;;5061265;28;20087;-84
2023/06/23 06:50:15;;;;;;;6.97;5.88;;;23.40;99.90;;;;;;5064387;28;20139;-83
2023/06/23 06:52:43;;;;;;;9.68;6.53;;;22.90;99.90;;;;;;5045802;28;20048;-82
2023/06/23 06:55:15;;;;;;;9.02;5.38;;;22.60;99.90;;;;;;5061106;28;20048;-82
2023/06/23 06:57:41;;;;;;;8.57;5.18;;;22.40;99.90;;;;;;5064496;28;20045;-83
2023/06/23 07:00:09;;;;;;;9.27;5.65;;;22.20;99.90;;;;;;5064456;28;20094;-84
2023/06/23 07:02:37;;;;;;;12.07;6.38;;;22.20;99.90;;;;;;5044579;28;20091;-84
2023/06/23 07:05:03;;;;;;;7.68;5.18;;;22.00;99.90;;;;;;5047466;28;20045;-86
2023/06/23 07:07:30;;;;;;;8.48;5.30;;;21.70;99.90;;;;;;5047227;28;20033;-84
2023/06/23 07:09:56;;;;;;;6.80;4.65;;;21.60;99.90;;;;;;5040874;28;20036;-83
2023/06/23 07:12:23;;;;;;;7.35;4.78;;;23.60;99.90;;;;;;5057770;28;20044;-83
2023/06/23 07:14:49;;;;;;;9.52;4.63;;;21.50;99.90;;;;;;5047098;28;20730;-83
2023/06/23 07:17:15;;;;;;;9.00;5.07;;;23.40;99.90;;;;;;5062650;28;20131;-83
2023/06/23 07:19:41;;;;;;;6.68;4.00;;;21.30;99.90;;;;;;5055108;28;20044;-83
2023/06/23 07:22:07;;;;;;;10.27;5.47;;;21.20;99.90;;;;;;5063627;28;20045;-84
2023/06/23 07:24:33;;;;;;;7.25;4.63;;;21.50;99.90;;;;;;5064341;28;20330;-84
2023/06/23 07:26:58;;;;;;;7.10;4.25;;;21.10;99.90;;;;;;5065717;28;20138;-83
2023/06/23 07:29:24;;;;;;;8.30;4.50;;;21.40;99.90;;;;;;5064092;28;20040;-83
2023/06/23 07:31:49;;;;;;;6.88;4.65;;;21.60;99.90;;;;;;5063377;28;20041;-84
2023/06/23 07:34:15;;;;;;;8.95;4.55;;;21.40;99.90;;;;;;5047349;28;20049;-84
2023/06/23 07:36:40;;;;;;;6.93;4.57;;;23.50;99.90;;;;;;5043948;28;20051;-84
2023/06/23 07:39:08;;;;;;;9.75;3.92;;;21.30;99.90;;;;;;5067552;28;20174;-83
2023/06/23 07:41:34;;;;;;;5.30;3.78;;;21.60;99.90;;;;;;5058190;28;20044;-86
2023/06/23 07:44:00;;;;;;;5.97;3.63;;;23.60;99.90;;;;;;5042073;28;20387;-84
2023/06/23 07:46:25;;;;;;;7.05;4.80;;;19.60;99.90;;;;;;5045919;28;20074;-84
2023/06/23 07:48:51;;;;;;;5.20;4.05;;;21.30;99.90;;;;;;5067773;28;20040;-84
2023/06/23 07:51:17;;;;;;;8.05;4.00;;;23.10;99.90;;;;;;5067351;28;20052;-84
2023/06/23 07:53:42;;;;;;;7.10;4.80;;;21.60;99.90;;;;;;5038616;28;20047;-84
2023/06/23 07:56:11;;;;;;;6.70;4.47;;;21.50;99.90;;;;;;5051119;28;20040;-84
2023/06/23 07:58:36;;;;;;;8.00;5.68;;;21.70;99.90;;;;;;5061521;28;20068;-84
2023/06/23 08:01:02;;;;;;;10.02;5.60;;;21.60;99.90;;;;;;5050682;28;20055;-84
2023/06/23 08:03:28;;;;;;;8.18;5.15;;;21.70;99.90;;;;;;5062784;28;20282;-85
2023/06/23 08:05:53;;;;;;;8.50;5.32;;;21.70;99.90;;;;;;5045280;28;20486;-84
2023/06/23 08:08:19;;;;;;;8.43;5.72;;;22.00;99.90;;;;;;5067339;28;20171;-84
2023/06/23 08:10:45;;;;;;;7.95;6.18;;;23.50;99.90;;;;;;5066773;28;20093;-84
2023/06/23 08:13:10;;;;;;;10.90;7.07;;;21.70;99.90;;;;;;5042679;28;21191;-84
2023/06/23 08:15:36;;;;;;;8.50;6.72;;;21.80;99.90;;;;;;5052964;28;20041;-84
2023/06/23 08:18:01;;;;;;;8.32;6.47;;;21.90;99.90;;;;;;5063758;28;20094;-83
2023/06/23 08:20:29;;;;;;;6.32;4.93;;;21.70;99.90;;;;;;5063056;28;20174;-84
2023/06/23 08:22:54;;;;;;;8.85;5.53;;;21.80;99.90;;;;;;5050188;28;20044;-85
2023/06/23 08:25:20;;;;;;;10.57;7.97;;;21.80;99.90;;;;;;5063102;28;20080;-84
2023/06/23 08:27:46;;;;;;;9.75;6.57;;;21.90;99.90;;;;;;5059701;28;20402;-84
2023/06/23 08:30:14;;;;;;;10.43;6.35;;;23.00;99.90;;;;;;5066411;28;20059;-84
2023/06/23 08:32:39;;;;;;;7.35;5.82;;;21.90;99.90;;;;;;5062346;28;20066;-84
2023/06/23 08:35:05;;;;;;;7.75;5.82;;;22.00;99.90;;;;;;5066386;28;20040;-84
2023/06/23 08:37:30;;;;;;;6.07;4.32;;;22.30;99.90;;;;;;5058035;28;20117;-84
2023/06/23 08:39:56;;;;;;;8.30;4.88;;;22.00;99.90;;;;;;5061561;28;20043;-84
2023/06/23 08:42:22;;;;;;;6.90;4.10;;;22.00;99.90;;;;;;5066610;28;20043;-84
2023/06/23 08:44:50;;;;;;;5.80;3.60;;;22.00;99.90;;;;;;5049846;28;20046;-84
2023/06/23 08:47:19;;;;;;;4.43;3.45;;;22.20;99.90;;;;;;5066481;28;20245;-84
2023/06/23 08:49:48;;;;;;;6.15;3.33;;;23.40;99.90;;;;;;5065739;28;20048;-84
2023/06/23 08:52:14;;;;;;;6.53;3.75;;;22.10;99.90;;;;;;5066175;28;20059;-84
2023/06/23 08:54:40;;;;;;;5.53;4.13;;;22.20;99.90;;;;;;5049197;28;20044;-84
2023/06/23 08:57:06;;;;;;;4.80;3.88;;;22.10;99.90;;;;;;5049769;28;20044;-84
2023/06/23 08:59:33;;;;;;;4.65;3.55;;;22.40;99.90;;;;;;5056917;28;20052;-84
2023/06/23 09:01:59;;;;;;;4.88;2.67;;;22.20;99.90;;;;;;5065897;28;20045;-84
2023/06/23 09:04:24;;;;;;;5.88;2.60;;;22.60;99.90;;;;;;5065855;28;20120;-85
2023/06/23 09:06:50;;;;;;;5.18;2.50;;;22.30;99.90;;;;;;5066022;28;20040;-84
2023/06/23 09:09:18;;;;;;;4.90;2.08;;;22.40;99.90;;;;;;5056728;28;20037;-84
2023/06/23 09:11:43;;;;;;;3.58;1.95;;;22.40;99.90;;;;;;5049264;28;20105;-84
2023/06/23 09:14:10;;;;;;;5.28;2.30;;;24.50;99.90;;;;;;5065978;28;20040;-84
2023/06/23 09:16:37;;;;;;;4.90;2.15;;;22.50;99.90;;;;;;5065946;28;20052;-84
2023/06/23 09:19:04;;;;;;;4.28;3.00;;;23.80;99.90;;;;;;5064658;28;20036;-88
2023/06/23 09:21:31;;;;;;;4.90;3.03;;;23.70;99.90;;;;;;5061205;28;20075;-86
2023/06/23 09:23:58;;;;;;;4.28;2.95;;;24.20;99.90;;;;;;5049012;28;20162;-86
2023/06/23 09:26:25;;;;;;;6.85;3.45;;;22.50;99.90;;;;;;5063431;28;20044;-86
2023/06/23 09:28:50;;;;;;;8.05;3.30;;;22.60;99.90;;;;;;5048863;28;20564;-86
2023/06/23 09:31:17;;;;;;;6.25;3.38;;;25.20;99.90;;;;;;5048846;28;20040;-86
2023/06/23 09:33:51;;;;;;;6.18;3.58;;;25.50;99.90;;;;;;5056306;28;20421;-86
2023/06/23 09:36:18;;;;;;;8.35;3.95;;;22.90;99.90;;;;;;5046462;28;20132;-86
2023/06/23 09:38:44;;;;;;;3.97;3.05;;;23.10;99.90;;;;;;5049187;28;20497;-86
2023/06/23 09:41:19;;;;;;;5.63;3.05;;;24.00;99.90;;;;;;5065308;28;20089;-86
2023/06/23 09:43:50;;;;;;;5.97;3.15;;;23.00;99.90;;;;;;5065380;28;20040;-86
2023/06/23 09:46:18;;;;;;;4.50;3.05;;;25.40;99.90;;;;;;5045662;28;20044;-85
2023/06/23 09:48:46;;;;;;;5.35;3.20;;;23.20;99.90;;;;;;5044942;28;20062;-85
2023/06/23 09:51:12;;;;;;;5.57;3.47;;;23.50;99.90;;;;;;5048250;28;20072;-86
2023/06/23 09:53:42;;;;;;;5.07;3.53;;;23.30;99.90;;;;;;5039688;28;20074;-85
2023/06/23 09:56:14;;;;;;;7.65;3.75;;;23.70;99.90;;;;;;5046956;28;20040;-86
2023/06/23 09:58:41;;;;;;;6.93;3.35;;;23.50;99.90;;;;;;5046856;28;20040;-86
2023/06/23 10:01:12;;;;;;;7.70;3.95;;;23.60;99.90;;;;;;5042041;28;20519;-86
2023/06/23 10:03:46;;;;;;;7.75;3.85;;;23.70;99.90;;;;;;5048421;28;20076;-86
2023/06/23 10:06:23;;;;;;;8.15;3.75;;;23.90;99.90;;;;;;5044472;28;20122;-86
2023/06/23 10:08:57;;;;;;;6.85;4.38;;;25.20;99.90;;;;;;5047711;28;20043;-84
2023/06/23 10:11:37;;;;;;;7.00;3.95;;;25.70;99.90;;;;;;5044061;28;20122;-85
2023/06/23 10:14:11;;;;;;;7.90;3.63;;;26.20;99.90;;;;;;5061110;28;20087;-85
2023/06/23 10:16:43;;;;;;;6.15;3.45;;;25.10;99.90;;;;;;5038836;28;20055;-85
2023/06/23 10:19:09;;;;;;;6.68;3.20;;;25.10;99.90;;;;;;5043767;28;20502;-85
2023/06/23 10:21:35;;;;;;;5.15;3.00;;;24.10;99.90;;;;;;5035053;28;20032;-86
2023/06/23 10:24:07;;;;;;;5.53;2.72;;;26.00;99.90;;;;;;5033137;28;20044;-86
2023/06/23 10:26:35;;;;;;;6.03;3.55;;;24.20;99.90;;;;;;5047209;28;20052;-86
2023/06/23 10:29:05;;;;;;;4.45;2.30;;;26.60;99.90;;;;;;5048191;28;20033;-85
2023/06/23 10:31:31;;;;;;;4.25;2.20;;;26.00;99.90;;;;;;5048626;28;20053;-85
2023/06/23 10:33:59;;;;;;;5.10;2.85;;;23.70;99.90;;;;;;5054838;28;20040;-85
2023/06/23 10:36:25;;;;;;;5.78;2.20;;;24.00;99.90;;;;;;5048207;28;20052;-85
2023/06/23 10:38:54;;;;;;;4.70;2.92;;;24.10;99.90;;;;;;5063215;28;20743;-85
2023/06/23 10:41:20;;;;;;;5.60;2.90;;;24.20;99.90;;;;;;5047456;28;20051;-85
2023/06/23 10:43:47;;;;;;;7.25;2.50;;;25.90;99.90;;;;;;5059800;28;20374;-85
2023/06/23 10:46:13;;;;;;;4.45;2.22;;;24.00;99.90;;;;;;5047845;28;20060;-86
2023/06/23 10:48:41;;;;;;;3.15;1.80;;;24.40;99.90;;;;;;5048235;28;20040;-85
2023/06/23 10:51:09;;;;;;;4.95;2.55;;;24.10;99.90;;;;;;5044773;28;20518;-86
2023/06/23 10:53:44;;;;;;;9.57;3.00;;;24.10;99.90;;;;;;5063613;28;20074;-86
2023/06/23 10:56:09;;;;;;;3.55;2.70;;;26.20;99.90;;;;;;5061037;28;20060;-85
2023/06/23 10:58:51;;;;;;;7.13;2.65;;;24.20;99.90;;;;;;5047460;28;20036;-85
2023/06/23 11:01:16;;;;;;;5.88;2.80;;;25.90;99.90;;;;;;5057400;28;20080;-85
2023/06/23 11:03:42;;;;;;;4.05;2.55;;;25.80;99.90;;;;;;5051818;28;20082;-86
2023/06/23 11:06:11;;;;;;;4.72;2.60;;;26.30;99.90;;;;;;5052406;28;20033;-83
2023/06/23 11:08:41;;;;;;;4.72;2.55;;;24.50;99.90;;;;;;5061743;28;20041;-85
2023/06/23 11:11:08;;;;;;;5.10;2.88;;;24.50;99.90;;;;;;5065238;28;20044;-85
2023/06/23 11:13:44;;;;;;;6.18;2.80;;;25.90;99.90;;;;;;5068657;28;20045;-84
2023/06/23 11:16:14;;;;;;;6.18;3.22;;;24.40;99.90;;;;;;5061814;28;20054;-84
2023/06/23 11:18:51;;;;;;;6.25;2.97;;;24.70;99.90;;;;;;5068375;28;20086;-85
2023/06/23 11:21:19;;;;;;;6.20;2.90;;;24.50;99.90;;;;;;5068397;28;20060;-85
2023/06/23 11:24:20;;;;;;;4.70;2.83;;;26.20;99.90;;;;;;5047777;28;20386;-85
2023/06/23 11:26:48;;;;;;;4.20;2.60;;;24.60;99.90;;;;;;5067812;28;20047;-85
2023/06/23 11:29:17;;;;;;;4.60;2.80;;;24.70;99.90;;;;;;5051764;28;20041;-85
2023/06/23 11:32:05;;;;;;;5.88;2.53;;;24.70;99.90;;;;;;5051275;28;20510;-86
2023/06/23 11:34:48;;;;;;;5.85;2.75;;;24.70;99.90;;;;;;5042922;28;20047;-86
2023/06/23 11:37:14;;;;;;;5.38;2.88;;;24.80;99.90;;;;;;5051499;28;20135;-85
2023/06/23 11:39:41;;;;;;;5.75;2.58;;;24.50;99.90;;;;;;5067480;28;20139;-84
2023/06/23 11:42:06;;;;;;;4.55;2.05;;;25.00;99.90;;;;;;5064802;28;20036;-85
2023/06/23 11:44:32;;;;;;;4.88;2.30;;;24.90;99.90;;;;;;5067559;28;20047;-85
2023/06/23 11:46:58;;;;;;;5.07;2.45;;;24.40;99.90;;;;;;5050726;28;20032;-85
2023/06/23 11:49:24;;;;;;;5.10;2.15;;;25.90;99.90;;;;;;5066727;28;20048;-85
2023/06/23 11:51:50;;;;;;;3.72;2.22;;;25.30;99.90;;;;;;5063716;28;20040;-85
2023/06/23 11:54:16;;;;;;;4.35;1.90;;;26.80;99.90;;;;;;5050157;28;20043;-85
2023/06/23 11:56:42;;;;;;;4.25;2.60;;;24.50;99.90;;;;;;5050336;28;20039;-85
2023/06/23 11:59:14;;;;;;;5.05;1.83;;;24.50;99.90;;;;;;5035671;28;20532;-85
2023/06/23 12:01:39;;;;;;;3.88;2.15;;;24.60;99.90;;;;;;5041332;28;20048;-84
2023/06/23 12:04:06;;;;;;;4.75;1.92;;;25.80;99.90;;;;;;5067425;28;20032;-85
2023/06/23 12:06:36;;;;;;;7.25;2.05;;;24.90;99.90;;;;;;5050895;28;20088;-85
2023/06/23 12:09:02;;;;;;;5.43;2.20;;;24.80;99.90;;;;;;5039872;28;20043;-85
2023/06/23 12:11:29;;;;;;;6.28;2.00;;;27.50;99.90;;;;;;5048545;28;20083;-85
2023/06/23 12:13:57;;;;;;;6.97;2.30;;;25.00;99.90;;;;;;5050448;28;20036;-84
2023/06/23 12:16:22;;;;;;;4.97;2.33;;;24.90;99.90;;;;;;5067121;28;20109;-85
2023/06/23 12:18:50;;;;;;;3.35;2.10;;;26.30;99.90;;;;;;5051614;28;20036;-85
2023/06/23 12:21:17;;;;;;;2.70;1.70;;;24.50;99.90;;;;;;5072397;28;20064;-85
2023/06/23 12:23:43;;;;;;;8.25;3.08;;;26.90;99.90;;;;;;5073358;28;20157;-85
2023/06/23 12:26:09;;;;;;;48.45;5.60;;;26.40;99.90;;;;;;5073085;28;20040;-85
2023/06/23 12:28:35;;;;;;;13.23;3.10;;;24.20;99.90;;;;;;5053249;28;20071;-85
2023/06/23 12:31:11;;;;;;;99.43;9.32;;;26.10;99.90;;;;;;5077527;28;20041;-88
2023/06/23 12:37:14;;;;;;;182.57;16.65;;;25.30;99.90;;;;;;5058333;22;20138;-72
2023/06/23 12:39:40;;;;;;;13.38;3.20;;;24.80;99.90;;;;;;5052222;28;20044;-72
2023/06/23 12:42:08;;;;;;;13.27;2.80;;;24.80;99.90;;;;;;5073529;28;20061;-72
2023/06/23 12:44:36;;;;;;;6.13;2.97;;;25.80;99.90;;;;;;5060470;28;20097;-73
2023/06/23 12:47:03;;;;;;;4.43;2.47;;;24.90;99.90;;;;;;5056804;28;20045;-72
2023/06/23 12:49:31;;;;;;;4.97;2.28;;;25.00;99.90;;;;;;5066527;28;20051;-72
2023/06/23 12:51:57;;;;;;;5.00;2.05;;;25.00;99.90;;;;;;5067030;28;20044;-74
2023/06/23 12:54:40;;;;;;;6.28;2.28;;;26.20;99.90;;;;;;5042855;28;20059;-75